Time;durP1;ratioP1;P1;durP2;ratioP2;P2;SDS_P1;SDS_P2;PMS_P1;PMS_P2;Temp;Humidity;BMP_temperature;BMP_pressure;BME280_temperature;BME280_humidity;BME280_pressure;Samples;Min_cycle;Max_cycle;Signal;HPM_P1;HPM_P2
2022/05/14 00:01:14;;;;;;;;;;;21.80;51.10;;;;;;475781;249;1234;-40
2022/05/14 00:03:16;;;;;;;;;;;21.80;51.10;;;;;;475664;251;1299;-40
2022/05/14 00:05:17;;;;;;;;;;;21.80;51.10;;;;;;476045;249;1161;-41
2022/05/14 00:07:18;;;;;;;;;;;21.80;51.10;;;;;;475912;249;1178;-40
2022/05/14 00:09:19;;;;;;;;;;;21.80;51.10;;;;;;475662;251;2192;-40
2022/05/14 00:13:40;;;;;;;;;;;21.80;51.10;;;;;;475641;250;1281;-40
2022/05/14 00:15:41;;;;;;;;;;;21.90;51.10;;;;;;475660;250;1252;-41
2022/05/14 00:17:44;;;;;;;;;;;21.80;51.20;;;;;;475889;250;1302;-40
2022/05/14 00:19:44;;;;;;;;;;;21.80;51.10;;;;;;475548;250;2318;-40
2022/05/14 00:21:46;;;;;;;;;;;21.80;51.10;;;;;;475639;250;1316;-40
2022/05/14 00:23:47;;;;;;;;;;;21.80;51.10;;;;;;475746;249;1234;-41
2022/05/14 00:25:48;;;;;;;;;;;21.80;51.20;;;;;;475670;249;1281;-40
2022/05/14 00:27:50;;;;;;;;;;;21.80;51.20;;;;;;476070;250;1196;-41
2022/05/14 00:29:51;;;;;;;;;;;21.80;51.10;;;;;;475708;249;2204;-40
2022/05/14 00:31:52;;;;;;;;;;;21.80;51.10;;;;;;475613;250;1188;-40
2022/05/14 00:33:54;;;;;;;;;;;21.90;51.10;;;;;;475678;251;1144;-40
2022/05/14 00:35:55;;;;;;;;;;;21.80;51.10;;;;;;475590;250;1446;-40
2022/05/14 00:37:57;;;;;;;;;;;21.80;51.10;;;;;;475714;249;1751;-40
2022/05/14 00:39:59;;;;;;;;;;;21.90;51.10;;;;;;475703;249;1267;-40
2022/05/14 00:42:00;;;;;;;;;;;21.80;51.10;;;;;;475633;249;1385;-40
2022/05/14 00:44:01;;;;;;;;;;;21.80;51.10;;;;;;475699;249;1262;-40
2022/05/14 00:46:03;;;;;;;;;;;21.80;51.10;;;;;;475663;249;1411;-41
2022/05/14 00:48:04;;;;;;;;;;;21.80;51.20;;;;;;475815;249;1341;-40
2022/05/14 00:50:05;;;;;;;;;;;21.80;51.10;;;;;;475564;250;2129;-40
2022/05/14 00:52:06;;;;;;;;;;;21.80;51.10;;;;;;475610;250;1268;-40
2022/05/14 00:54:08;;;;;;;;;;;21.80;51.10;;;;;;475787;250;1225;-40
2022/05/14 00:56:09;;;;;;;;;;;21.80;51.20;;;;;;475613;249;1366;-40
2022/05/14 00:58:10;;;;;;;;;;;21.80;51.30;;;;;;475861;249;1480;-40
2022/05/14 01:00:12;;;;;;;;;;;21.80;51.20;;;;;;475878;249;1154;-40
2022/05/14 01:02:13;;;;;;;;;;;21.80;51.10;;;;;;475743;249;1277;-40
2022/05/14 01:04:14;;;;;;;;;;;21.90;51.20;;;;;;476100;250;1357;-40
2022/05/14 01:06:16;;;;;;;;;;;21.80;51.10;;;;;;475583;251;1239;-40
2022/05/14 01:08:17;;;;;;;;;;;21.80;51.00;;;;;;475687;249;1058;-40
2022/05/14 01:10:18;;;;;;;;;;;21.80;51.10;;;;;;475762;249;2126;-40
2022/05/14 01:12:20;;;;;;;;;;;21.80;51.20;;;;;;475723;249;1222;-40
2022/05/14 01:14:21;;;;;;;;;;;21.80;51.20;;;;;;476105;250;2239;-40
2022/05/14 01:16:22;;;;;;;;;;;21.80;51.10;;;;;;475739;249;1200;-40
2022/05/14 01:18:24;;;;;;;;;;;21.80;51.10;;;;;;475806;250;1077;-40
2022/05/14 01:20:25;;;;;;;;;;;21.80;51.10;;;;;;475639;251;1100;-40
2022/05/14 01:22:27;;;;;;;;;;;21.80;51.20;;;;;;475637;250;1237;-40
2022/05/14 01:26:47;;;;;;;;;;;21.80;51.10;;;;;;475614;250;1183;-40
2022/05/14 01:28:48;;;;;;;;;;;21.80;51.20;;;;;;475628;249;1216;-40
2022/05/14 01:30:50;;;;;;;;;;;21.80;51.20;;;;;;475779;249;2140;-40
2022/05/14 01:33:04;;;;;;;;;;;21.80;51.20;;;;;;475819;250;2258;-40
2022/05/14 01:34:52;;;;;;;;;;;21.80;51.20;;;;;;475092;250;2127;-40
2022/05/14 01:36:55;;;;;;;;;;;21.80;51.10;;;;;;475647;250;1114;-40
2022/05/14 01:38:55;;;;;;;;;;;21.80;51.10;;;;;;475620;250;1558;-40
2022/05/14 01:40:56;;;;;;;;;;;21.80;51.10;;;;;;475666;251;1173;-40
2022/05/14 01:42:58;;;;;;;;;;;21.90;51.10;;;;;;475638;251;1178;-40
2022/05/14 01:44:59;;;;;;;;;;;21.90;51.10;;;;;;475801;250;1102;-40
2022/05/14 01:47:01;;;;;;;;;;;21.80;51.10;;;;;;475735;249;1210;-40
2022/05/14 01:49:02;;;;;;;;;;;21.80;51.20;;;;;;475857;249;1454;-40
2022/05/14 01:51:03;;;;;;;;;;;21.80;51.20;;;;;;475579;249;2205;-40
2022/05/14 01:53:04;;;;;;;;;;;21.80;51.10;;;;;;475583;249;1213;-40
2022/05/14 01:55:06;;;;;;;;;;;21.80;51.10;;;;;;475588;251;1313;-40
2022/05/14 01:57:07;;;;;;;;;;;21.80;51.00;;;;;;475544;251;1216;-40
2022/05/14 01:59:10;;;;;;;;;;;21.80;51.00;;;;;;475874;249;1373;-40
2022/05/14 02:01:11;;;;;;;;;;;21.80;51.00;;;;;;475624;250;1246;-40
2022/05/14 02:03:12;;;;;;;;;;;21.80;51.00;;;;;;475604;251;1359;-40
2022/05/14 02:05:13;;;;;;;;;;;21.80;50.90;;;;;;475610;250;1254;-40
2022/05/14 02:07:15;;;;;;;;;;;21.90;51.10;;;;;;475822;249;1224;-40
2022/05/14 02:09:16;;;;;;;;;;;21.80;51.10;;;;;;475670;249;1282;-40
2022/05/14 02:11:17;;;;;;;;;;;21.80;51.20;;;;;;475640;250;2130;-40
2022/05/14 02:13:19;;;;;;;;;;;21.80;51.20;;;;;;475805;249;1271;-40
2022/05/14 02:15:20;;;;;;;;;;;21.80;51.10;;;;;;475845;249;1211;-40
2022/05/14 02:17:21;;;;;;;;;;;21.80;51.10;;;;;;475785;249;1342;-40
2022/05/14 02:19:23;;;;;;;;;;;21.80;51.00;;;;;;476015;249;1324;-40
2022/05/14 02:21:26;;;;;;;;;;;21.80;51.10;;;;;;475913;249;1215;-40
2022/05/14 02:23:26;;;;;;;;;;;21.90;51.30;;;;;;475629;250;1536;-40
2022/05/14 02:25:28;;;;;;;;;;;21.90;51.00;;;;;;475878;249;1129;-40
2022/05/14 02:27:29;;;;;;;;;;;21.90;51.10;;;;;;475875;250;1232;-40
2022/05/14 02:29:50;;;;;;;;;;;21.80;51.10;;;;;;476101;250;1170;-40
2022/05/14 02:31:32;;;;;;;;;;;21.80;51.20;;;;;;474517;250;2185;-40
2022/05/14 02:33:33;;;;;;;;;;;21.80;51.10;;;;;;475721;249;1285;-40
2022/05/14 02:35:35;;;;;;;;;;;21.90;51.20;;;;;;475799;249;1276;-40
2022/05/14 02:37:36;;;;;;;;;;;21.80;51.10;;;;;;475571;249;1221;-40
2022/05/14 02:39:37;;;;;;;;;;;21.80;51.20;;;;;;475666;249;1276;-40
2022/05/14 02:41:39;;;;;;;;;;;21.80;51.30;;;;;;475708;249;1248;-40
2022/05/14 02:43:40;;;;;;;;;;;21.80;51.20;;;;;;475622;250;1290;-40
2022/05/14 02:45:41;;;;;;;;;;;21.90;51.10;;;;;;475781;249;1216;-40
2022/05/14 02:47:43;;;;;;;;;;;21.80;51.10;;;;;;475544;250;1256;-40
2022/05/14 02:49:44;;;;;;;;;;;21.90;51.10;;;;;;475602;249;2142;-40
2022/05/14 02:51:45;;;;;;;;;;;21.90;51.10;;;;;;475826;249;1161;-40
2022/05/14 02:53:47;;;;;;;;;;;21.90;51.30;;;;;;476061;249;1216;-40
2022/05/14 02:55:48;;;;;;;;;;;21.90;51.20;;;;;;475687;249;2393;-40
2022/05/14 02:57:49;;;;;;;;;;;21.80;51.10;;;;;;475726;249;1683;-40
2022/05/14 02:59:50;;;;;;;;;;;21.80;51.30;;;;;;475792;249;1081;-40
2022/05/14 03:01:52;;;;;;;;;;;21.80;51.20;;;;;;475654;250;1223;-40
2022/05/14 03:03:53;;;;;;;;;;;21.80;51.20;;;;;;476120;249;1154;-40
2022/05/14 03:05:54;;;;;;;;;;;21.80;51.00;;;;;;475787;250;1296;-40
2022/05/14 03:07:56;;;;;;;;;;;21.80;51.10;;;;;;475660;250;1377;-40
2022/05/14 03:09:57;;;;;;;;;;;21.80;51.10;;;;;;475633;251;2216;-40
2022/05/14 03:11:58;;;;;;;;;;;21.80;51.20;;;;;;475708;249;1247;-40
2022/05/14 03:14:00;;;;;;;;;;;21.80;51.20;;;;;;475763;249;1336;-40
2022/05/14 03:16:01;;;;;;;;;;;21.80;51.30;;;;;;475666;250;1199;-40
2022/05/14 03:18:02;;;;;;;;;;;21.90;51.30;;;;;;475805;249;1239;-40
2022/05/14 03:20:06;;;;;;;;;;;21.80;51.20;;;;;;476080;250;1143;-40
2022/05/14 03:22:05;;;;;;;;;;;21.80;51.10;;;;;;475699;250;2198;-40
2022/05/14 03:24:06;;;;;;;;;;;21.80;51.20;;;;;;475636;250;1195;-40
2022/05/14 03:26:08;;;;;;;;;;;21.80;51.20;;;;;;476031;249;1293;-40
2022/05/14 03:28:10;;;;;;;;;;;21.90;51.30;;;;;;476029;249;1368;-40
2022/05/14 03:30:10;;;;;;;;;;;21.90;51.10;;;;;;475580;251;2408;-40
2022/05/14 03:32:12;;;;;;;;;;;21.90;51.20;;;;;;475880;246;1294;-40
2022/05/14 03:34:13;;;;;;;;;;;21.90;51.20;;;;;;475640;249;1137;-40
2022/05/14 03:36:14;;;;;;;;;;;21.90;51.20;;;;;;475601;250;1030;-40
2022/05/14 03:38:16;;;;;;;;;;;21.90;51.10;;;;;;475787;249;1200;-40
2022/05/14 03:40:17;;;;;;;;;;;21.90;51.40;;;;;;475818;249;1091;-40
2022/05/14 03:42:19;;;;;;;;;;;21.90;51.30;;;;;;476049;249;1171;-40
2022/05/14 03:44:20;;;;;;;;;;;21.90;50.90;;;;;;476005;249;1360;-40
2022/05/14 03:46:21;;;;;;;;;;;21.90;51.00;;;;;;475656;250;1215;-40
2022/05/14 03:48:23;;;;;;;;;;;21.90;50.90;;;;;;475736;249;1305;-40
2022/05/14 03:50:24;;;;;;;;;;;21.90;51.20;;;;;;475882;249;2196;-40
2022/05/14 03:52:25;;;;;;;;;;;22.00;51.10;;;;;;475666;249;1296;-40
2022/05/14 03:54:27;;;;;;;;;;;21.90;50.90;;;;;;476057;250;1243;-40
2022/05/14 03:56:28;;;;;;;;;;;21.90;51.40;;;;;;475716;250;1187;-40
2022/05/14 03:58:30;;;;;;;;;;;21.90;51.30;;;;;;475769;249;1517;-40
2022/05/14 04:00:31;;;;;;;;;;;21.90;51.40;;;;;;475689;249;1256;-40
2022/05/14 04:02:32;;;;;;;;;;;21.90;52.70;;;;;;475904;249;1218;-40
2022/05/14 04:04:33;;;;;;;;;;;21.90;52.20;;;;;;475659;251;1514;-40
2022/05/14 04:06:35;;;;;;;;;;;21.90;52.20;;;;;;475677;250;1258;-40
2022/05/14 04:08:36;;;;;;;;;;;21.90;52.50;;;;;;475896;250;1310;-40
2022/05/14 04:10:37;;;;;;;;;;;22.00;52.20;;;;;;475627;250;2200;-40
2022/05/14 04:12:39;;;;;;;;;;;21.90;51.70;;;;;;475609;249;1295;-40
2022/05/14 04:14:40;;;;;;;;;;;22.00;52.30;;;;;;475555;250;1185;-40
2022/05/14 04:16:41;;;;;;;;;;;22.00;54.00;;;;;;475562;249;1220;-40
2022/05/14 04:18:43;;;;;;;;;;;21.90;52.10;;;;;;475642;250;1309;-40
2022/05/14 04:20:44;;;;;;;;;;;21.90;52.40;;;;;;475590;250;1194;-40
2022/05/14 04:22:45;;;;;;;;;;;21.90;52.20;;;;;;475822;249;1260;-40
2022/05/14 04:24:46;;;;;;;;;;;21.90;51.40;;;;;;475615;250;2264;-40
2022/05/14 04:26:48;;;;;;;;;;;21.90;52.20;;;;;;475821;249;1323;-40
2022/05/14 04:28:49;;;;;;;;;;;21.90;53.00;;;;;;475679;251;1218;-40
2022/05/14 04:30:51;;;;;;;;;;;21.90;51.70;;;;;;475784;250;2204;-40
2022/05/14 04:32:52;;;;;;;;;;;21.90;51.90;;;;;;475583;249;2217;-40
2022/05/14 04:34:53;;;;;;;;;;;21.90;52.00;;;;;;476089;249;1226;-40
2022/05/14 04:36:56;;;;;;;;;;;21.90;51.70;;;;;;475727;250;1225;-40
2022/05/14 04:38:57;;;;;;;;;;;22.00;51.60;;;;;;476101;249;1153;-40
2022/05/14 04:40:58;;;;;;;;;;;21.90;51.40;;;;;;475867;249;1195;-40
2022/05/14 04:43:00;;;;;;;;;;;22.00;52.60;;;;;;475657;250;1271;-40
2022/05/14 04:45:01;;;;;;;;;;;21.90;52.10;;;;;;475712;249;2352;-40
2022/05/14 04:47:02;;;;;;;;;;;22.00;52.60;;;;;;475573;250;1566;-40
2022/05/14 04:49:04;;;;;;;;;;;21.90;51.70;;;;;;475830;249;1112;-40
2022/05/14 04:51:05;;;;;;;;;;;22.00;52.10;;;;;;475489;250;2192;-40
2022/05/14 04:53:06;;;;;;;;;;;21.90;51.90;;;;;;475841;249;1225;-40
2022/05/14 04:55:08;;;;;;;;;;;21.90;51.70;;;;;;475882;249;1050;-40
2022/05/14 04:57:09;;;;;;;;;;;22.00;52.00;;;;;;475771;249;1148;-40
2022/05/14 04:59:10;;;;;;;;;;;22.00;52.70;;;;;;475738;249;1053;-40
2022/05/14 05:01:12;;;;;;;;;;;21.90;51.50;;;;;;475805;249;1339;-40
2022/05/14 05:03:19;;;;;;;;;;;21.90;51.40;;;;;;475948;249;1251;-40
2022/05/14 05:05:20;;;;;;;;;;;21.90;52.10;;;;;;475678;250;2413;-40
2022/05/14 05:07:21;;;;;;;;;;;21.90;52.00;;;;;;475667;250;1617;-40
2022/05/14 05:09:23;;;;;;;;;;;21.90;52.10;;;;;;476017;249;1121;-40
2022/05/14 05:11:24;;;;;;;;;;;21.90;52.60;;;;;;475671;250;2193;-40
2022/05/14 05:13:25;;;;;;;;;;;21.90;52.30;;;;;;475715;250;1260;-40
2022/05/14 05:15:27;;;;;;;;;;;21.90;52.00;;;;;;475886;249;1076;-40
2022/05/14 05:17:28;;;;;;;;;;;21.90;52.40;;;;;;475696;250;1406;-40
2022/05/14 05:19:30;;;;;;;;;;;21.90;52.30;;;;;;475698;250;1222;-40
2022/05/14 05:21:31;;;;;;;;;;;22.00;51.70;;;;;;475585;250;1476;-40
2022/05/14 05:23:32;;;;;;;;;;;22.00;52.20;;;;;;475856;249;1234;-40
2022/05/14 05:25:35;;;;;;;;;;;21.90;52.60;;;;;;475840;249;1509;-40
2022/05/14 05:27:35;;;;;;;;;;;21.90;53.80;;;;;;475438;251;2330;-40
2022/05/14 05:29:36;;;;;;;;;;;21.90;52.40;;;;;;475746;249;1273;-40
2022/05/14 05:31:39;;;;;;;;;;;22.00;51.70;;;;;;475820;249;2216;-40
2022/05/14 05:33:40;;;;;;;;;;;22.00;52.00;;;;;;475608;250;2483;-40
2022/05/14 05:35:41;;;;;;;;;;;22.00;52.40;;;;;;475747;249;1558;-40
2022/05/14 05:37:42;;;;;;;;;;;22.00;52.50;;;;;;475626;251;1245;-40
2022/05/14 05:39:44;;;;;;;;;;;21.90;52.70;;;;;;475970;250;1229;-40
2022/05/14 05:41:45;;;;;;;;;;;22.00;52.20;;;;;;476043;250;1252;-40
2022/05/14 05:43:46;;;;;;;;;;;22.00;53.80;;;;;;476109;249;1315;-40
2022/05/14 05:45:49;;;;;;;;;;;21.90;53.30;;;;;;475652;249;1125;-40
2022/05/14 05:47:49;;;;;;;;;;;21.90;52.20;;;;;;475621;250;1571;-40
2022/05/14 05:49:50;;;;;;;;;;;22.00;52.90;;;;;;475838;249;1415;-40
2022/05/14 05:51:52;;;;;;;;;;;22.00;53.30;;;;;;476047;249;2138;-40
2022/05/14 05:56:47;;;;;;;;;;;22.00;52.80;;;;;;459562;258;1607;-40
2022/05/14 05:58:48;;;;;;;;;;;21.90;52.90;;;;;;459613;259;1270;-40
2022/05/14 06:00:50;;;;;;;;;;;22.00;53.60;;;;;;460283;251;1435;-40
2022/05/14 06:02:51;;;;;;;;;;;22.00;52.70;;;;;;475933;250;1186;-40
2022/05/14 06:04:52;;;;;;;;;;;22.00;55.00;;;;;;475888;249;1349;-40
2022/05/14 06:06:54;;;;;;;;;;;22.00;53.10;;;;;;475779;250;1229;-40
2022/05/14 06:08:55;;;;;;;;;;;22.00;52.10;;;;;;475649;250;1275;-40
2022/05/14 06:10:56;;;;;;;;;;;22.00;55.10;;;;;;475960;250;2204;-40
2022/05/14 06:12:58;;;;;;;;;;;21.90;57.60;;;;;;475710;249;1146;-40
2022/05/14 06:14:59;;;;;;;;;;;22.00;55.60;;;;;;475838;249;1261;-40
2022/05/14 06:17:00;;;;;;;;;;;22.00;54.60;;;;;;475572;250;1162;-40
2022/05/14 06:19:02;;;;;;;;;;;22.00;53.80;;;;;;475586;251;1244;-40
2022/05/14 06:23:24;;;;;;;;;;;21.90;55.70;;;;;;476276;238;3617;-41
2022/05/14 06:25:25;;;;;;;;;;;21.90;53.70;;;;;;475533;251;1259;-40
2022/05/14 06:27:26;;;;;;;;;;;22.00;53.50;;;;;;475573;250;1283;-40
2022/05/14 06:29:29;;;;;;;;;;;22.00;53.20;;;;;;475997;249;1221;-40
2022/05/14 06:31:29;;;;;;;;;;;22.00;54.20;;;;;;475549;250;2327;-40
2022/05/14 06:33:32;;;;;;;;;;;22.00;54.40;;;;;;475795;250;1140;-40
2022/05/14 06:35:33;;;;;;;;;;;21.90;53.90;;;;;;475531;250;2343;-40
2022/05/14 06:37:34;;;;;;;;;;;21.90;52.70;;;;;;475594;249;1276;-40
2022/05/14 06:39:36;;;;;;;;;;;21.90;53.40;;;;;;475552;251;1280;-40
2022/05/14 06:41:38;;;;;;;;;;;21.90;53.10;;;;;;475800;249;1532;-41
2022/05/14 06:43:38;;;;;;;;;;;21.90;53.90;;;;;;475542;250;2188;-40
2022/05/14 06:45:40;;;;;;;;;;;21.90;54.50;;;;;;475553;251;1226;-40
2022/05/14 06:47:41;;;;;;;;;;;21.90;71.10;;;;;;475848;249;1236;-40
2022/05/14 06:49:42;;;;;;;;;;;21.90;55.60;;;;;;475536;251;1190;-40
2022/05/14 06:51:44;;;;;;;;;;;21.80;50.70;;;;;;475928;249;2129;-40
2022/05/14 06:53:46;;;;;;;;;;;21.80;50.70;;;;;;475758;249;1275;-40
2022/05/14 06:55:47;;;;;;;;;;;21.80;50.70;;;;;;475558;250;1176;-40
2022/05/14 06:57:48;;;;;;;;;;;21.90;50.70;;;;;;475509;251;1330;-40
2022/05/14 06:59:49;;;;;;;;;;;21.90;50.70;;;;;;475870;249;1176;-41
2022/05/14 07:01:51;;;;;;;;;;;21.90;50.70;;;;;;475498;250;1281;-40
2022/05/14 07:08:31;;;;;;;;;;;21.80;50.70;;;;;;475561;251;1270;-40
2022/05/14 07:10:32;;;;;;;;;;;21.80;50.70;;;;;;475873;249;1206;-41
2022/05/14 07:12:34;;;;;;;;;;;21.80;50.70;;;;;;475516;250;2196;-40
2022/05/14 07:14:35;;;;;;;;;;;21.80;50.70;;;;;;475886;249;1190;-40
2022/05/14 07:16:36;;;;;;;;;;;21.80;50.70;;;;;;475619;250;1280;-40
2022/05/14 07:18:37;;;;;;;;;;;21.90;50.70;;;;;;475802;250;1181;-40
2022/05/14 07:20:39;;;;;;;;;;;21.90;50.70;;;;;;476008;250;1311;-40
2022/05/14 07:22:40;;;;;;;;;;;21.80;50.70;;;;;;475647;249;1506;-40
2022/05/14 07:24:41;;;;;;;;;;;21.80;50.70;;;;;;475604;250;1274;-40
2022/05/14 07:26:43;;;;;;;;;;;21.90;50.80;;;;;;475924;250;2305;-40
2022/05/14 07:28:44;;;;;;;;;;;21.80;50.70;;;;;;476097;250;1171;-40
2022/05/14 07:30:45;;;;;;;;;;;21.80;50.70;;;;;;476095;249;1313;-40
2022/05/14 07:32:47;;;;;;;;;;;21.80;50.70;;;;;;476051;250;2188;-40
2022/05/14 07:34:48;;;;;;;;;;;21.80;50.70;;;;;;475696;250;1086;-41
2022/05/14 07:36:49;;;;;;;;;;;21.80;50.70;;;;;;475805;250;1228;-40
2022/05/14 07:38:51;;;;;;;;;;;21.80;50.70;;;;;;475652;250;1177;-40
2022/05/14 07:40:52;;;;;;;;;;;21.80;50.80;;;;;;476141;249;1058;-40
2022/05/14 07:42:53;;;;;;;;;;;21.90;50.70;;;;;;476012;249;1147;-40
2022/05/14 07:44:55;;;;;;;;;;;21.80;50.70;;;;;;476072;249;1115;-40
2022/05/14 07:46:56;;;;;;;;;;;21.90;50.70;;;;;;475909;249;1211;-41
2022/05/14 07:48:57;;;;;;;;;;;21.80;50.70;;;;;;475618;250;1100;-40
2022/05/14 07:50:58;;;;;;;;;;;21.80;50.70;;;;;;476010;249;1592;-40
2022/05/14 07:53:00;;;;;;;;;;;21.80;50.70;;;;;;475583;250;2251;-40
2022/05/14 07:55:01;;;;;;;;;;;21.80;50.80;;;;;;475523;250;1541;-40
2022/05/14 07:57:06;;;;;;;;;;;21.80;50.80;;;;;;475557;250;1237;-40
2022/05/14 07:59:04;;;;;;;;;;;21.80;50.70;;;;;;475484;250;1826;-40
2022/05/14 08:01:05;;;;;;;;;;;21.80;50.70;;;;;;476044;249;1688;-40
2022/05/14 08:03:08;;;;;;;;;;;21.80;50.70;;;;;;475564;249;1205;-40
2022/05/14 08:05:09;;;;;;;;;;;21.80;50.70;;;;;;475470;251;1846;-40
2022/05/14 08:07:09;;;;;;;;;;;21.80;50.70;;;;;;475487;251;2342;-40
2022/05/14 08:09:11;;;;;;;;;;;21.80;50.60;;;;;;475769;249;1230;-40
2022/05/14 08:11:12;;;;;;;;;;;21.80;50.70;;;;;;475803;249;1268;-40
2022/05/14 08:13:15;;;;;;;;;;;21.80;50.70;;;;;;475899;249;2317;-40
2022/05/14 08:15:15;;;;;;;;;;;21.80;50.60;;;;;;475566;250;2419;-40
2022/05/14 08:17:16;;;;;;;;;;;21.80;50.70;;;;;;475511;251;1383;-40
2022/05/14 08:19:17;;;;;;;;;;;21.80;50.80;;;;;;475612;250;1196;-40
2022/05/14 08:25:57;;;;;;;;;;;21.80;50.70;;;;;;475713;250;1279;-40
2022/05/14 08:27:59;;;;;;;;;;;21.80;50.70;;;;;;475668;249;1237;-40
2022/05/14 08:30:00;;;;;;;;;;;21.80;50.70;;;;;;475923;249;1352;-40
2022/05/14 08:32:01;;;;;;;;;;;21.80;50.70;;;;;;475768;249;2146;-40
2022/05/14 08:34:03;;;;;;;;;;;21.80;50.70;;;;;;475578;250;1344;-40
2022/05/14 08:36:04;;;;;;;;;;;21.70;50.80;;;;;;475902;249;1316;-40
2022/05/14 08:38:05;;;;;;;;;;;21.70;50.80;;;;;;476061;249;1180;-40
2022/05/14 08:40:07;;;;;;;;;;;21.70;50.80;;;;;;475571;251;1273;-40
2022/05/14 08:42:08;;;;;;;;;;;21.80;50.80;;;;;;475791;249;1234;-41
2022/05/14 08:44:09;;;;;;;;;;;21.80;50.70;;;;;;476020;250;1185;-40
2022/05/14 08:46:11;;;;;;;;;;;21.80;50.80;;;;;;475725;249;1283;-40
2022/05/14 08:48:12;;;;;;;;;;;21.80;50.80;;;;;;475678;249;1347;-40
2022/05/14 08:50:13;;;;;;;;;;;21.80;50.70;;;;;;475546;251;1483;-40
2022/05/14 08:52:15;;;;;;;;;;;21.70;50.70;;;;;;475567;249;2200;-40
2022/05/14 08:54:16;;;;;;;;;;;21.70;50.80;;;;;;475616;250;1243;-40
2022/05/14 08:56:17;;;;;;;;;;;21.80;50.80;;;;;;475961;250;1598;-40
2022/05/14 08:58:19;;;;;;;;;;;21.80;50.80;;;;;;475699;250;1220;-40
2022/05/14 09:00:22;;;;;;;;;;;21.80;50.80;;;;;;475897;249;1234;-40
2022/05/14 09:02:21;;;;;;;;;;;21.80;50.70;;;;;;475464;251;2445;-40
2022/05/14 09:04:23;;;;;;;;;;;21.80;50.80;;;;;;475660;250;1348;-40
2022/05/14 09:06:24;;;;;;;;;;;21.80;50.70;;;;;;475623;250;1222;-40
2022/05/14 09:08:25;;;;;;;;;;;21.80;50.80;;;;;;475612;251;1302;-40
2022/05/14 09:10:27;;;;;;;;;;;21.80;50.80;;;;;;475584;249;1264;-41
2022/05/14 09:12:28;;;;;;;;;;;21.80;50.70;;;;;;475642;250;2109;-40
2022/05/14 09:14:29;;;;;;;;;;;21.80;50.60;;;;;;475984;249;1339;-40
2022/05/14 09:16:31;;;;;;;;;;;21.80;50.60;;;;;;475563;251;1246;-40
2022/05/14 09:18:32;;;;;;;;;;;21.80;50.70;;;;;;475689;250;1278;-41
2022/05/14 09:20:33;;;;;;;;;;;21.80;50.70;;;;;;476078;249;1297;-40
2022/05/14 09:22:35;;;;;;;;;;;21.80;50.60;;;;;;475621;251;1248;-40
2022/05/14 09:24:36;;;;;;;;;;;21.80;50.70;;;;;;475828;249;1402;-40
2022/05/14 09:26:38;;;;;;;;;;;21.80;50.70;;;;;;475977;249;1246;-40
2022/05/14 09:28:39;;;;;;;;;;;21.80;50.70;;;;;;475630;249;1320;-41
2022/05/14 09:30:41;;;;;;;;;;;21.80;50.60;;;;;;475843;249;1549;-40
2022/05/14 09:32:42;;;;;;;;;;;21.80;50.60;;;;;;475596;250;2196;-40
2022/05/14 09:34:43;;;;;;;;;;;21.80;50.60;;;;;;476054;249;1333;-41
2022/05/14 09:36:45;;;;;;;;;;;21.80;50.60;;;;;;475742;250;1297;-40
2022/05/14 09:38:48;;;;;;;;;;;21.80;50.60;;;;;;475597;250;1379;-40
2022/05/14 09:40:48;;;;;;;;;;;21.80;50.70;;;;;;475729;250;2381;-40
2022/05/14 09:42:49;;;;;;;;;;;21.80;50.70;;;;;;476018;250;1527;-40
2022/05/14 09:44:50;;;;;;;;;;;21.70;50.70;;;;;;475784;250;1093;-41
2022/05/14 09:46:52;;;;;;;;;;;21.80;50.80;;;;;;475516;251;1200;-40
2022/05/14 09:48:55;;;;;;;;;;;21.80;50.70;;;;;;475666;250;1048;-40
2022/05/14 09:50:55;;;;;;;;;;;21.80;50.70;;;;;;475819;250;2348;-41
2022/05/14 09:52:56;;;;;;;;;;;21.80;50.70;;;;;;475621;250;2197;-40
2022/05/14 09:54:58;;;;;;;;;;;21.80;50.70;;;;;;475739;249;1221;-40
2022/05/14 09:56:59;;;;;;;;;;;21.80;50.60;;;;;;476009;250;1265;-40
2022/05/14 09:59:01;;;;;;;;;;;21.80;50.60;;;;;;475786;249;1259;-40
2022/05/14 10:01:03;;;;;;;;;;;21.80;50.70;;;;;;475642;250;1220;-40
2022/05/14 10:03:06;;;;;;;;;;;21.80;50.70;;;;;;475576;251;2681;-40
2022/05/14 10:05:06;;;;;;;;;;;21.80;50.70;;;;;;475837;250;1779;-40
2022/05/14 10:07:07;;;;;;;;;;;21.80;50.70;;;;;;475810;249;1189;-40
2022/05/14 10:09:09;;;;;;;;;;;21.80;50.70;;;;;;476019;249;1249;-40
2022/05/14 10:11:10;;;;;;;;;;;21.80;50.70;;;;;;475585;251;1567;-40
2022/05/14 10:13:11;;;;;;;;;;;21.80;50.60;;;;;;475521;250;2256;-40
2022/05/14 10:15:13;;;;;;;;;;;21.80;50.60;;;;;;475858;249;1582;-40
2022/05/14 10:17:15;;;;;;;;;;;21.80;50.70;;;;;;475617;249;1186;-40
2022/05/14 10:19:15;;;;;;;;;;;21.80;50.70;;;;;;475640;250;2401;-40
2022/05/14 10:21:17;;;;;;;;;;;21.80;50.70;;;;;;475895;250;1113;-41
2022/05/14 10:27:56;;;;;;;;;;;21.80;50.80;;;;;;475646;251;1083;-40
2022/05/14 10:29:57;;;;;;;;;;;21.70;50.70;;;;;;476067;249;1083;-40
2022/05/14 10:31:59;;;;;;;;;;;21.80;50.80;;;;;;476075;249;1252;-40
2022/05/14 10:34:00;;;;;;;;;;;21.70;50.80;;;;;;476004;250;2187;-40
2022/05/14 10:36:01;;;;;;;;;;;21.80;50.80;;;;;;475613;250;1320;-40
2022/05/14 10:38:03;;;;;;;;;;;21.70;50.70;;;;;;475620;250;1273;-40
2022/05/14 10:40:04;;;;;;;;;;;21.80;50.80;;;;;;476035;249;1256;-40
2022/05/14 10:42:05;;;;;;;;;;;21.80;50.70;;;;;;475650;250;1487;-40
2022/05/14 10:44:07;;;;;;;;;;;21.80;50.70;;;;;;475592;250;1200;-40
2022/05/14 10:46:08;;;;;;;;;;;21.80;50.70;;;;;;475942;249;1242;-40
2022/05/14 10:48:09;;;;;;;;;;;21.80;50.70;;;;;;475796;249;1217;-40
2022/05/14 10:50:11;;;;;;;;;;;21.80;50.80;;;;;;476069;249;1283;-40
2022/05/14 10:52:12;;;;;;;;;;;21.80;50.70;;;;;;475734;249;1201;-40
2022/05/14 10:54:13;;;;;;;;;;;21.80;50.80;;;;;;475944;249;2204;-41
2022/05/14 10:56:15;;;;;;;;;;;21.80;50.70;;;;;;475627;251;1438;-40
2022/05/14 10:58:16;;;;;;;;;;;21.80;50.60;;;;;;475666;250;1645;-40
2022/05/14 11:00:17;;;;;;;;;;;21.80;50.80;;;;;;475594;251;1186;-40
2022/05/14 11:02:19;;;;;;;;;;;21.80;50.80;;;;;;476051;249;1234;-40
2022/05/14 11:04:20;;;;;;;;;;;21.80;50.80;;;;;;476044;249;1566;-41
2022/05/14 11:06:21;;;;;;;;;;;21.80;50.70;;;;;;475933;249;1277;-40
2022/05/14 11:08:23;;;;;;;;;;;21.80;50.70;;;;;;476027;249;1205;-40
2022/05/14 11:10:27;;;;;;;;;;;21.80;50.60;;;;;;475743;250;1234;-40
2022/05/14 11:12:25;;;;;;;;;;;21.80;50.60;;;;;;475390;251;2158;-40
2022/05/14 11:14:27;;;;;;;;;;;21.80;50.60;;;;;;475652;250;2192;-40
2022/05/14 11:16:28;;;;;;;;;;;21.80;50.80;;;;;;475771;249;1279;-40
2022/05/14 11:18:29;;;;;;;;;;;21.80;50.70;;;;;;475590;250;1502;-40
2022/05/14 11:20:30;;;;;;;;;;;21.80;50.70;;;;;;476021;249;1199;-40
2022/05/14 11:22:32;;;;;;;;;;;21.70;50.80;;;;;;475573;250;1312;-40
2022/05/14 11:24:33;;;;;;;;;;;21.80;50.90;;;;;;475951;249;1300;-40
2022/05/14 11:26:34;;;;;;;;;;;21.80;50.80;;;;;;475562;251;1207;-40
2022/05/14 11:28:36;;;;;;;;;;;21.70;50.70;;;;;;475749;249;1275;-40
2022/05/14 11:30:37;;;;;;;;;;;21.70;50.70;;;;;;475581;250;1215;-40
2022/05/14 11:32:38;;;;;;;;;;;21.80;50.80;;;;;;475711;249;1238;-40
2022/05/14 11:34:40;;;;;;;;;;;21.70;50.70;;;;;;475654;251;2228;-40
2022/05/14 11:36:41;;;;;;;;;;;21.80;50.70;;;;;;475606;250;1215;-40
2022/05/14 11:38:42;;;;;;;;;;;21.80;50.70;;;;;;475619;249;1204;-41
2022/05/14 11:40:44;;;;;;;;;;;21.80;50.70;;;;;;475589;249;1718;-40
2022/05/14 11:42:46;;;;;;;;;;;21.80;50.70;;;;;;475680;250;1284;-40
2022/05/14 11:44:47;;;;;;;;;;;21.80;50.70;;;;;;475980;249;1397;-40
2022/05/14 11:46:48;;;;;;;;;;;21.80;50.70;;;;;;475733;249;2445;-40
2022/05/14 11:48:49;;;;;;;;;;;21.70;50.80;;;;;;475860;250;1169;-40
2022/05/14 11:50:51;;;;;;;;;;;21.70;50.80;;;;;;475572;251;1194;-40
2022/05/14 11:52:52;;;;;;;;;;;21.80;50.90;;;;;;475989;249;2199;-40
2022/05/14 11:54:54;;;;;;;;;;;21.80;50.80;;;;;;475570;250;1094;-40
2022/05/14 11:56:55;;;;;;;;;;;21.80;50.80;;;;;;475766;249;1241;-40
2022/05/14 11:58:56;;;;;;;;;;;21.80;50.80;;;;;;475612;251;1296;-40
2022/05/14 12:00:58;;;;;;;;;;;21.70;50.80;;;;;;475607;250;1249;-40
2022/05/14 12:02:59;;;;;;;;;;;21.70;50.80;;;;;;475856;249;1209;-41
2022/05/14 12:05:00;;;;;;;;;;;21.80;50.80;;;;;;475610;250;1263;-40
2022/05/14 12:07:02;;;;;;;;;;;21.80;50.80;;;;;;475748;250;1211;-40
2022/05/14 12:09:03;;;;;;;;;;;21.80;50.90;;;;;;475680;250;1209;-40
2022/05/14 12:11:04;;;;;;;;;;;21.80;50.90;;;;;;476105;249;1230;-40
2022/05/14 12:13:06;;;;;;;;;;;21.80;50.90;;;;;;475739;249;2208;-40
2022/05/14 12:15:07;;;;;;;;;;;21.80;51.30;;;;;;476052;250;1196;-40
2022/05/14 12:17:08;;;;;;;;;;;21.80;51.00;;;;;;475643;251;1173;-40
2022/05/14 12:19:11;;;;;;;;;;;21.80;50.90;;;;;;475682;250;1358;-40
2022/05/14 12:21:11;;;;;;;;;;;21.80;51.00;;;;;;475866;250;2254;-40